Time;durP1;ratioP1;P1;durP2;ratioP2;P2;SDS_P1;SDS_P2;PMS_P1;PMS_P2;Temp;Humidity;BMP_temperature;BMP_pressure;BME280_temperature;BME280_humidity;BME280_pressure;Samples;Min_cycle;Max_cycle;Signal;HPM_P1;HPM_P2
2023/04/04 00:02:09;;;;;;;4.30;3.00;;;5.90;70.70;;;;;;5037517;28;20173;-66
2023/04/04 00:04:35;;;;;;;4.93;3.10;;;5.90;70.90;;;;;;5032388;28;20176;-65
2023/04/04 00:07:01;;;;;;;5.97;3.10;;;5.80;71.10;;;;;;5029872;28;20208;-65
2023/04/04 00:09:26;;;;;;;3.73;3.33;;;5.80;71.40;;;;;;5032594;28;20184;-66
2023/04/04 00:11:52;;;;;;;4.23;3.13;;;5.80;72.50;;;;;;5034905;28;20182;-66
2023/04/04 00:14:18;;;;;;;5.07;2.73;;;5.80;71.80;;;;;;5034342;28;20299;-65
2023/04/04 00:16:43;;;;;;;4.23;3.10;;;5.80;72.00;;;;;;5034123;28;20431;-66
2023/04/04 00:19:13;;;;;;;5.77;4.03;;;5.80;72.10;;;;;;5026679;28;20658;-65
2023/04/04 00:21:38;;;;;;;8.07;4.07;;;5.70;72.40;;;;;;5032488;28;20183;-65
2023/04/04 00:24:04;;;;;;;6.20;3.27;;;5.70;72.30;;;;;;5026428;28;20501;-65
2023/04/04 00:26:30;;;;;;;5.70;3.20;;;5.70;72.30;;;;;;5038689;28;20829;-65
2023/04/04 00:28:55;;;;;;;5.10;2.90;;;5.70;72.50;;;;;;5031101;28;20580;-65
2023/04/04 00:31:21;;;;;;;6.13;3.47;;;5.70;72.60;;;;;;5034043;28;20195;-65
2023/04/04 00:33:47;;;;;;;5.07;2.90;;;5.60;73.00;;;;;;5034366;28;20216;-65
2023/04/04 00:36:12;;;;;;;3.87;3.00;;;5.60;72.90;;;;;;5042158;28;20491;-65
2023/04/04 00:38:38;;;;;;;4.50;3.40;;;5.60;73.10;;;;;;5030904;28;20552;-65
2023/04/04 00:41:05;;;;;;;6.30;3.60;;;5.60;73.50;;;;;;5028842;28;20188;-65
2023/04/04 00:43:31;;;;;;;5.60;3.57;;;5.50;73.50;;;;;;5035522;28;20190;-65
2023/04/04 00:45:56;;;;;;;6.17;2.90;;;5.50;73.40;;;;;;5024942;28;20427;-65
2023/04/04 00:48:23;;;;;;;3.47;3.17;;;5.50;73.50;;;;;;5033611;28;20466;-65
2023/04/04 00:50:49;;;;;;;4.93;3.23;;;5.50;73.70;;;;;;5031008;28;20216;-65
2023/04/04 00:53:15;;;;;;;3.87;3.50;;;5.50;73.80;;;;;;5027250;28;20529;-65
2023/04/04 00:55:42;;;;;;;4.77;3.17;;;5.50;73.90;;;;;;5029604;28;20190;-66
2023/04/04 00:58:07;;;;;;;2.83;2.53;;;5.40;74.20;;;;;;5026466;28;20650;-65
2023/04/04 01:00:35;;;;;;;3.00;2.70;;;5.40;75.00;;;;;;5033574;28;20427;-65
2023/04/04 01:03:01;;;;;;;3.20;2.80;;;5.40;74.80;;;;;;5031923;28;20185;-65
2023/04/04 01:05:27;;;;;;;4.13;3.40;;;5.30;74.70;;;;;;5030818;28;20509;-65
2023/04/04 01:07:53;;;;;;;4.00;3.10;;;5.40;75.00;;;;;;5031089;28;20462;-65
2023/04/04 01:10:19;;;;;;;4.53;3.13;;;5.40;74.90;;;;;;5033334;28;20219;-64
2023/04/04 01:12:45;;;;;;;5.50;3.20;;;5.40;74.90;;;;;;5029637;28;20479;-65
2023/04/04 01:15:10;;;;;;;3.10;2.77;;;5.30;74.90;;;;;;5034290;28;20294;-64
2023/04/04 01:17:36;;;;;;;8.50;3.10;;;5.20;75.10;;;;;;5031457;28;20466;-65
2023/04/04 01:20:15;;;;;;;4.37;2.80;;;5.20;75.30;;;;;;5030862;28;20195;-65
2023/04/04 01:22:42;;;;;;;5.90;3.20;;;5.20;75.20;;;;;;5025281;28;20184;-65
2023/04/04 01:25:10;;;;;;;4.57;2.87;;;5.20;75.30;;;;;;5031203;28;20426;-64
2023/04/04 01:27:35;;;;;;;5.57;3.30;;;5.20;75.60;;;;;;5031227;28;20448;-65
2023/04/04 01:30:02;;;;;;;3.30;3.00;;;5.10;76.50;;;;;;5029799;28;21074;-65
2023/04/04 01:32:50;;;;;;;3.67;3.17;;;5.10;75.90;;;;;;5028066;28;20211;-64
2023/04/04 01:36:03;;;;;;;6.03;3.57;;;5.10;76.10;;;;;;5028670;28;20522;-64
2023/04/04 01:38:37;;;;;;;4.17;3.30;;;5.10;76.30;;;;;;5027702;28;20814;-65
2023/04/04 01:41:07;;;;;;;4.50;2.90;;;5.10;76.20;;;;;;5029934;28;20436;-65
2023/04/04 01:43:33;;;;;;;3.73;3.10;;;5.00;76.30;;;;;;5033062;28;20423;-65
2023/04/04 01:45:59;;;;;;;3.43;2.90;;;5.00;76.50;;;;;;5027650;28;20512;-65
2023/04/04 01:48:25;;;;;;;5.00;3.30;;;5.00;76.80;;;;;;5021802;28;20208;-64
2023/04/04 01:50:51;;;;;;;3.90;3.00;;;5.00;76.70;;;;;;5023050;28;20445;-65
2023/04/04 01:53:17;;;;;;;6.60;3.37;;;5.00;76.80;;;;;;5029114;28;21067;-65
2023/04/04 01:55:42;;;;;;;4.50;2.87;;;5.00;76.80;;;;;;5029754;28;20179;-64
2023/04/04 01:58:08;;;;;;;7.97;3.53;;;4.90;76.70;;;;;;5028570;28;20208;-64
2023/04/04 02:00:34;;;;;;;6.00;3.63;;;4.90;76.90;;;;;;5030082;28;20258;-64
2023/04/04 02:03:00;;;;;;;3.50;3.20;;;4.90;76.80;;;;;;5027935;28;20181;-65
2023/04/04 02:05:26;;;;;;;5.80;3.33;;;4.90;76.90;;;;;;5026341;28;20184;-65
2023/04/04 02:07:51;;;;;;;4.70;3.10;;;4.90;77.20;;;;;;5030915;28;20449;-65
2023/04/04 02:10:17;;;;;;;6.40;3.30;;;4.90;77.40;;;;;;5025404;28;20242;-65
2023/04/04 02:12:43;;;;;;;6.13;3.43;;;4.80;77.40;;;;;;5030289;28;20270;-65
2023/04/04 02:15:09;;;;;;;3.00;2.70;;;4.80;77.60;;;;;;5028852;28;20210;-65
2023/04/04 02:17:35;;;;;;;3.30;2.87;;;4.80;77.70;;;;;;5033420;28;20511;-66
2023/04/04 02:20:01;;;;;;;3.97;3.27;;;4.70;77.60;;;;;;5024658;28;20542;-65
2023/04/04 02:22:26;;;;;;;3.97;3.57;;;4.70;77.70;;;;;;5029425;28;20185;-65
2023/04/04 02:24:56;;;;;;;4.87;3.27;;;4.70;77.80;;;;;;5030320;28;20477;-65
2023/04/04 02:27:22;;;;;;;4.37;3.03;;;4.70;78.00;;;;;;5023508;28;20299;-65
2023/04/04 02:29:48;;;;;;;4.10;3.00;;;4.70;77.70;;;;;;5030153;28;20435;-65
2023/04/04 02:32:14;;;;;;;3.90;2.90;;;4.60;77.90;;;;;;5027286;28;20448;-65
2023/04/04 02:34:39;;;;;;;3.40;2.83;;;4.60;78.10;;;;;;5033528;28;20493;-65
2023/04/04 02:37:05;;;;;;;3.43;3.13;;;4.60;78.30;;;;;;5030605;28;20205;-65
2023/04/04 02:39:30;;;;;;;3.87;3.00;;;4.60;78.50;;;;;;5031443;28;20197;-66
2023/04/04 02:41:56;;;;;;;4.80;3.10;;;4.60;78.50;;;;;;5027665;28;20176;-65
2023/04/04 02:44:22;;;;;;;3.27;2.97;;;4.50;78.60;;;;;;5027659;28;20172;-65
2023/04/04 02:46:48;;;;;;;4.90;3.17;;;4.50;79.00;;;;;;5028425;28;20705;-65
2023/04/04 02:49:14;;;;;;;3.80;3.40;;;4.50;78.90;;;;;;5026057;28;20267;-65
2023/04/04 02:51:40;;;;;;;3.20;2.90;;;4.50;78.90;;;;;;5028627;28;20858;-65
2023/04/04 02:54:06;;;;;;;3.57;3.20;;;4.50;79.10;;;;;;5035830;28;20464;-65
2023/04/04 02:56:31;;;;;;;4.37;3.27;;;4.50;79.30;;;;;;5036120;28;20564;-65
2023/04/04 02:58:57;;;;;;;5.77;3.03;;;4.40;79.30;;;;;;5039624;28;20239;-65
2023/04/04 03:01:22;;;;;;;5.00;3.23;;;4.40;79.40;;;;;;5027129;28;20180;-65
2023/04/04 03:03:48;;;;;;;5.10;3.10;;;4.40;79.90;;;;;;5033071;28;20218;-65
2023/04/04 03:06:13;;;;;;;4.53;3.20;;;4.40;79.90;;;;;;5035746;28;20180;-66
2023/04/04 03:08:39;;;;;;;4.47;3.13;;;4.30;79.80;;;;;;5031141;28;21061;-65
2023/04/04 03:11:05;;;;;;;3.57;3.10;;;4.40;79.80;;;;;;5028604;28;20610;-65
2023/04/04 03:13:30;;;;;;;8.40;3.13;;;4.30;79.90;;;;;;5031618;28;20678;-65
2023/04/04 03:16:02;;;;;;;9.10;3.20;;;4.30;79.90;;;;;;5030558;28;20176;-65
2023/04/04 03:18:28;;;;;;;3.47;3.13;;;4.30;80.00;;;;;;5027808;28;20634;-64
2023/04/04 03:20:53;;;;;;;4.20;3.23;;;4.30;80.10;;;;;;5026435;28;20435;-64
2023/04/04 03:23:19;;;;;;;3.20;2.90;;;4.20;80.30;;;;;;5030862;28;20424;-65
2023/04/04 03:25:45;;;;;;;5.73;3.37;;;4.20;80.50;;;;;;5028367;28;20287;-64
2023/04/04 03:28:11;;;;;;;4.67;3.07;;;4.20;80.60;;;;;;5026956;28;20258;-64
2023/04/04 03:30:37;;;;;;;4.40;3.57;;;4.20;80.80;;;;;;5030604;28;20176;-65
2023/04/04 03:33:07;;;;;;;3.77;3.37;;;4.20;80.70;;;;;;5034547;28;20792;-65
2023/04/04 03:35:36;;;;;;;5.83;3.10;;;4.10;80.80;;;;;;5031499;28;20436;-65
2023/04/04 03:38:02;;;;;;;7.10;3.20;;;4.10;80.90;;;;;;5031481;28;20564;-64
2023/04/04 03:40:28;;;;;;;5.87;3.20;;;4.10;81.10;;;;;;5031772;28;20526;-65
2023/04/04 03:42:53;;;;;;;4.30;3.20;;;4.10;81.50;;;;;;5033387;28;20183;-64
2023/04/04 03:45:19;;;;;;;5.70;3.20;;;4.00;81.10;;;;;;5032378;28;20186;-64
2023/04/04 03:47:44;;;;;;;4.60;3.23;;;4.10;81.20;;;;;;5031046;28;20216;-65
2023/04/04 03:50:10;;;;;;;7.83;3.40;;;4.10;81.30;;;;;;5031488;28;20189;-65
2023/04/04 03:52:39;;;;;;;4.70;3.30;;;4.00;81.60;;;;;;5032355;28;20181;-64
2023/04/04 03:55:06;;;;;;;6.33;3.40;;;4.00;81.70;;;;;;5022621;28;20188;-65
2023/04/04 03:57:32;;;;;;;3.67;3.03;;;4.00;81.80;;;;;;5036814;28;20889;-65
2023/04/04 03:59:57;;;;;;;3.93;3.13;;;4.00;81.90;;;;;;5026649;28;20481;-64
2023/04/04 04:02:23;;;;;;;5.20;3.10;;;4.00;82.90;;;;;;5029005;28;20423;-64
2023/04/04 04:04:49;;;;;;;3.90;3.07;;;4.00;82.10;;;;;;5034154;28;20752;-65
2023/04/04 04:07:15;;;;;;;4.87;3.47;;;3.90;82.20;;;;;;5034167;28;20195;-64
2023/04/04 04:09:40;;;;;;;4.20;2.63;;;3.90;82.40;;;;;;5031728;28;20181;-65
2023/04/04 04:12:06;;;;;;;4.53;3.13;;;3.90;82.50;;;;;;5030654;28;20181;-65
2023/04/04 04:14:32;;;;;;;3.50;3.20;;;3.90;82.40;;;;;;5025577;28;20184;-65
2023/04/04 04:16:57;;;;;;;3.80;3.13;;;3.90;82.40;;;;;;5027084;28;20501;-65
2023/04/04 04:19:23;;;;;;;4.20;3.50;;;3.90;82.70;;;;;;5026382;28;20219;-65
2023/04/04 04:21:49;;;;;;;6.33;3.10;;;3.80;82.80;;;;;;5031956;28;20203;-65
2023/04/04 04:24:14;;;;;;;7.70;3.53;;;3.80;82.80;;;;;;5024156;28;20184;-65
2023/04/04 04:26:40;;;;;;;4.67;3.50;;;3.90;83.10;;;;;;5028543;28;20860;-65
2023/04/04 04:29:06;;;;;;;3.60;3.30;;;3.80;83.10;;;;;;5031062;28;20192;-64
2023/04/04 04:31:32;;;;;;;4.17;3.40;;;3.80;83.30;;;;;;5027937;28;20255;-65
2023/04/04 04:33:57;;;;;;;5.77;3.60;;;3.80;83.20;;;;;;5033330;28;20555;-65
2023/04/04 04:36:23;;;;;;;5.83;3.53;;;3.80;83.60;;;;;;5033594;28;20629;-64
2023/04/04 04:38:48;;;;;;;3.50;3.20;;;3.70;84.00;;;;;;5035866;28;20196;-64
2023/04/04 04:41:14;;;;;;;6.70;3.80;;;3.70;84.10;;;;;;5026867;28;20183;-64
2023/04/04 04:43:40;;;;;;;6.10;3.60;;;3.70;84.40;;;;;;5027011;28;20190;-64
2023/04/04 04:46:07;;;;;;;5.70;3.10;;;3.70;84.40;;;;;;5025553;28;20902;-64
2023/04/04 04:48:33;;;;;;;4.27;3.57;;;3.70;84.40;;;;;;5033043;28;20246;-64
2023/04/04 04:50:58;;;;;;;3.50;3.10;;;3.70;84.50;;;;;;5027505;28;20947;-64
2023/04/04 04:53:24;;;;;;;5.10;3.43;;;3.70;84.70;;;;;;5027342;28;20637;-65
2023/04/04 04:55:51;;;;;;;6.60;3.47;;;3.60;84.60;;;;;;5031890;28;20172;-65
2023/04/04 04:58:20;;;;;;;4.90;3.63;;;3.60;84.90;;;;;;5027469;28;20220;-65
2023/04/04 05:00:45;;;;;;;4.43;4.03;;;3.60;85.10;;;;;;5031674;28;21135;-65
2023/04/04 05:03:11;;;;;;;4.13;3.17;;;3.60;85.30;;;;;;5032441;28;20419;-65
2023/04/04 05:05:37;;;;;;;4.10;3.20;;;3.60;85.50;;;;;;5029002;28;20176;-65
2023/04/04 05:08:03;;;;;;;3.47;3.10;;;3.60;85.70;;;;;;5035416;28;20701;-66
2023/04/04 05:10:30;;;;;;;3.23;2.93;;;3.60;86.00;;;;;;5029902;28;20263;-65
2023/04/04 05:12:55;;;;;;;4.80;3.30;;;3.60;85.90;;;;;;5025285;28;20492;-65
2023/04/04 05:15:21;;;;;;;6.17;3.37;;;3.60;85.90;;;;;;5025727;28;20450;-65
2023/04/04 05:17:47;;;;;;;10.83;3.70;;;3.60;86.00;;;;;;5028563;28;20287;-65
2023/04/04 05:20:13;;;;;;;5.67;3.87;;;3.60;86.10;;;;;;5029605;28;20196;-65
2023/04/04 05:22:43;;;;;;;6.40;3.50;;;3.60;86.30;;;;;;5030183;28;20493;-65
2023/04/04 05:25:09;;;;;;;4.70;3.67;;;3.60;86.20;;;;;;5031335;28;20174;-65
2023/04/04 05:27:34;;;;;;;3.83;3.27;;;3.60;86.40;;;;;;5030607;28;20711;-65
2023/04/04 05:30:00;;;;;;;11.43;3.63;;;3.60;86.50;;;;;;5019797;28;20435;-65
2023/04/04 05:32:25;;;;;;;3.20;2.60;;;3.60;86.60;;;;;;5026031;28;20199;-65
2023/04/04 05:34:51;;;;;;;5.00;3.23;;;3.60;86.80;;;;;;5033647;28;20222;-65
2023/04/04 05:37:16;;;;;;;5.67;3.87;;;3.60;86.90;;;;;;5027340;28;20666;-65
2023/04/04 05:39:42;;;;;;;4.30;3.77;;;3.50;87.10;;;;;;5027882;28;20622;-65
2023/04/04 05:42:08;;;;;;;4.33;3.10;;;3.60;87.30;;;;;;5029420;28;20965;-66
2023/04/04 05:44:33;;;;;;;127.53;58.23;;;3.60;87.10;;;;;;5034562;28;20262;-65
2023/04/04 05:46:59;;;;;;;28.33;14.77;;;3.60;87.40;;;;;;5026892;28;20203;-65
2023/04/04 05:49:24;;;;;;;9.90;5.87;;;3.60;87.50;;;;;;5027523;28;20562;-66
2023/04/04 05:51:51;;;;;;;14.87;7.00;;;3.60;87.60;;;;;;5026899;28;20176;-65
2023/04/04 05:54:16;;;;;;;9.00;7.33;;;3.60;87.70;;;;;;5029188;28;20966;-65
2023/04/04 05:56:42;;;;;;;4.67;4.07;;;3.60;87.90;;;;;;5035089;28;20450;-65
2023/04/04 06:01:56;;;;;;;10.40;3.90;;;3.70;87.90;;;;;;5027026;22;20735;-65
2023/04/04 06:04:21;;;;;;;4.33;3.10;;;3.70;87.90;;;;;;5008820;28;20435;-66
2023/04/04 06:06:47;;;;;;;3.60;3.30;;;3.70;88.10;;;;;;5009562;28;20439;-65
2023/04/04 06:09:13;;;;;;;3.83;3.43;;;3.70;88.30;;;;;;5013430;28;20188;-65
2023/04/04 06:11:38;;;;;;;5.80;4.00;;;3.70;88.50;;;;;;5015980;28;20286;-65
2023/04/04 06:14:04;;;;;;;4.90;3.57;;;3.70;88.30;;;;;;5015366;28;20196;-65
2023/04/04 06:16:30;;;;;;;5.70;3.97;;;3.70;88.20;;;;;;5015647;28;20176;-65
2023/04/04 06:18:55;;;;;;;7.60;4.87;;;3.80;88.10;;;;;;5014904;28;20739;-65
2023/04/04 06:21:21;;;;;;;6.40;4.60;;;3.80;88.20;;;;;;5012371;28;20815;-65
2023/04/04 06:23:47;;;;;;;6.63;4.57;;;3.90;88.00;;;;;;5015425;28;20192;-65
2023/04/04 06:26:13;;;;;;;7.40;4.00;;;3.80;87.70;;;;;;5021259;28;20235;-65
2023/04/04 06:28:47;;;;;;;4.47;3.73;;;3.80;88.10;;;;;;5023652;28;20177;-65
2023/04/04 06:31:13;;;;;;;4.20;3.80;;;3.90;88.20;;;;;;5018635;28;20501;-65
2023/04/04 06:33:38;;;;;;;5.73;3.83;;;3.80;88.00;;;;;;5013312;28;20800;-66
2023/04/04 06:36:04;;;;;;;5.73;3.90;;;3.80;88.00;;;;;;5016989;28;20650;-66
2023/04/04 06:38:30;;;;;;;4.03;3.60;;;3.90;88.10;;;;;;5018138;28;20201;-66
2023/04/04 06:40:56;;;;;;;8.10;3.83;;;3.90;88.00;;;;;;5014501;28;20201;-65
2023/04/04 06:43:22;;;;;;;6.17;4.03;;;4.00;87.80;;;;;;5011629;28;20519;-66
2023/04/04 06:45:48;;;;;;;3.90;3.50;;;4.00;87.60;;;;;;5010377;28;20219;-66
2023/04/04 06:48:14;;;;;;;8.40;4.60;;;4.10;87.20;;;;;;5019462;28;20522;-65
2023/04/04 06:50:40;;;;;;;5.57;3.60;;;4.10;87.30;;;;;;5015246;28;20500;-65
2023/04/04 06:53:06;;;;;;;4.73;3.90;;;4.20;87.20;;;;;;5019493;28;20858;-65
2023/04/04 06:55:33;;;;;;;5.20;4.10;;;4.20;87.00;;;;;;5018318;28;20211;-65
2023/04/04 06:57:58;;;;;;;7.93;4.67;;;4.20;86.60;;;;;;5016985;28;20625;-65
2023/04/04 07:00:24;;;;;;;5.20;4.03;;;4.30;86.40;;;;;;5015152;28;20474;-65
2023/04/04 07:02:59;;;;;;;6.07;4.13;;;4.30;86.40;;;;;;5014620;28;20280;-65
2023/04/04 07:05:25;;;;;;;4.80;4.30;;;4.30;86.20;;;;;;5012815;28;20176;-65
2023/04/04 07:07:54;;;;;;;5.87;4.30;;;4.40;85.80;;;;;;5019167;28;20435;-65
2023/04/04 07:10:23;;;;;;;8.40;4.23;;;4.40;85.70;;;;;;5014168;28;20332;-65
2023/04/04 07:12:49;;;;;;;6.43;4.47;;;4.50;85.40;;;;;;5019882;28;20783;-65
2023/04/04 07:15:15;;;;;;;7.93;3.93;;;4.50;85.40;;;;;;5018973;28;20447;-64
2023/04/04 07:17:41;;;;;;;8.13;5.03;;;4.50;85.00;;;;;;5015177;28;20436;-65
2023/04/04 07:20:07;;;;;;;4.10;3.57;;;4.60;85.20;;;;;;5019846;28;20266;-65
2023/04/04 07:22:41;;;;;;;7.00;4.30;;;4.60;85.00;;;;;;5014056;28;20197;-65
2023/04/04 07:25:07;;;;;;;6.13;4.00;;;4.70;84.90;;;;;;5019579;28;20431;-65
2023/04/04 07:27:33;;;;;;;4.07;3.50;;;4.70;83.80;;;;;;5009287;28;20429;-65
2023/04/04 07:29:58;;;;;;;6.20;4.07;;;4.80;84.50;;;;;;5019544;28;20478;-65
2023/04/04 07:32:24;;;;;;;5.70;4.13;;;4.80;84.60;;;;;;5021539;28;20185;-65
2023/04/04 07:34:50;;;;;;;8.83;3.93;;;4.90;83.90;;;;;;5011073;28;20189;-65
2023/04/04 07:37:15;;;;;;;5.20;4.03;;;5.00;84.20;;;;;;5015039;28;20188;-65
2023/04/04 07:39:41;;;;;;;5.90;4.13;;;5.10;83.80;;;;;;5018281;28;20455;-65
2023/04/04 07:42:07;;;;;;;4.07;3.50;;;5.10;83.50;;;;;;5018942;28;20192;-65
2023/04/04 07:44:32;;;;;;;6.87;4.40;;;5.10;82.90;;;;;;5018774;28;20184;-65
2023/04/04 07:46:58;;;;;;;6.57;4.20;;;5.20;82.50;;;;;;5017677;28;20675;-65
2023/04/04 07:49:24;;;;;;;4.37;3.97;;;5.20;81.70;;;;;;5015253;28;20184;-66
2023/04/04 07:51:49;;;;;;;8.80;4.30;;;5.30;81.70;;;;;;5016961;28;20219;-66
2023/04/04 07:54:15;;;;;;;6.33;3.47;;;5.30;81.50;;;;;;5012134;28;20243;-66
2023/04/04 07:56:40;;;;;;;5.13;3.60;;;5.40;81.20;;;;;;5011472;28;20719;-66
2023/04/04 07:59:06;;;;;;;7.30;4.57;;;5.40;81.10;;;;;;5014754;28;20698;-66
2023/04/04 08:01:31;;;;;;;6.50;4.77;;;5.50;80.60;;;;;;5018980;28;20232;-65
2023/04/04 08:03:57;;;;;;;5.70;3.87;;;5.50;80.70;;;;;;5017694;28;20212;-65
2023/04/04 08:06:23;;;;;;;5.73;3.80;;;5.60;80.30;;;;;;5015777;28;20236;-65
2023/04/04 08:08:49;;;;;;;3.97;3.57;;;5.70;80.00;;;;;;5018519;28;20799;-66
2023/04/04 08:11:15;;;;;;;3.80;3.50;;;5.70;79.50;;;;;;5013220;28;20204;-66
2023/04/04 08:13:41;;;;;;;8.03;4.17;;;5.70;78.90;;;;;;5019113;28;20500;-66
2023/04/04 08:16:07;;;;;;;8.13;3.90;;;5.70;78.90;;;;;;5018448;28;20423;-66
2023/04/04 08:18:32;;;;;;;5.17;3.90;;;5.80;78.80;;;;;;5013726;28;20815;-66
2023/04/04 08:20:58;;;;;;;4.70;3.80;;;5.80;78.10;;;;;;5012689;28;20215;-65
2023/04/04 08:23:24;;;;;;;4.40;4.00;;;5.90;78.00;;;;;;5011538;28;20201;-66
2023/04/04 08:25:50;;;;;;;6.50;4.40;;;5.90;78.00;;;;;;5020042;28;20222;-65
2023/04/04 08:28:16;;;;;;;5.10;3.70;;;6.00;77.80;;;;;;5020719;28;20490;-66
2023/04/04 08:30:41;;;;;;;7.40;3.90;;;6.00;77.70;;;;;;5014080;28;21106;-66
2023/04/04 08:33:07;;;;;;;5.13;4.27;;;6.10;77.00;;;;;;5012613;28;20220;-66
2023/04/04 08:35:33;;;;;;;6.73;4.00;;;6.10;77.10;;;;;;5008656;28;20219;-66
2023/04/04 08:38:01;;;;;;;5.47;4.10;;;6.20;76.30;;;;;;5015824;28;20456;-65
2023/04/04 08:40:29;;;;;;;5.10;3.70;;;6.30;75.70;;;;;;5016394;28;20215;-66
2023/04/04 08:42:56;;;;;;;4.40;3.50;;;6.30;75.70;;;;;;5017071;28;20450;-66
2023/04/04 08:45:23;;;;;;;8.70;4.13;;;6.30;75.90;;;;;;5017570;28;20420;-66
2023/04/04 08:47:51;;;;;;;11.00;8.20;;;6.30;75.70;;;;;;5011531;28;20518;-65
2023/04/04 08:50:18;;;;;;;8.20;6.83;;;6.30;75.30;;;;;;5017583;28;20475;-65
2023/04/04 08:52:45;;;;;;;5.83;4.03;;;6.40;75.60;;;;;;5017386;28;20433;-66
2023/04/04 08:55:11;;;;;;;5.27;4.37;;;6.50;75.30;;;;;;5019015;28;20427;-66
2023/04/04 08:57:37;;;;;;;5.63;3.93;;;6.60;75.00;;;;;;5015888;28;20411;-66
2023/04/04 09:00:05;;;;;;;4.57;3.93;;;6.70;74.40;;;;;;5015117;28;20831;-66
2023/04/04 09:02:51;;;;;;;7.40;4.00;;;6.80;73.60;;;;;;5015444;28;20487;-66
2023/04/04 09:05:17;;;;;;;5.07;4.00;;;6.80;73.40;;;;;;5017310;28;20512;-66
2023/04/04 09:07:43;;;;;;;4.87;3.70;;;6.80;72.90;;;;;;5013905;28;20573;-65
2023/04/04 09:10:10;;;;;;;4.77;4.10;;;6.90;72.90;;;;;;5014260;28;20930;-66
2023/04/04 09:12:38;;;;;;;6.30;4.23;;;6.90;72.60;;;;;;5018239;28;20441;-66
2023/04/04 09:15:05;;;;;;;5.90;4.17;;;6.90;73.00;;;;;;5011335;28;21301;-65
2023/04/04 09:17:30;;;;;;;4.30;3.90;;;7.00;73.30;;;;;;5013188;28;20804;-66
2023/04/04 09:20:02;;;;;;;4.57;4.10;;;7.10;72.60;;;;;;5014583;28;20471;-65
2023/04/04 09:22:28;;;;;;;4.90;4.40;;;7.10;71.80;;;;;;5012112;28;20255;-65
2023/04/04 09:24:55;;;;;;;5.10;4.60;;;7.20;71.40;;;;;;5016920;28;20443;-65
2023/04/04 09:27:21;;;;;;;6.20;3.90;;;7.20;70.10;;;;;;5018757;28;20655;-65
2023/04/04 09:29:46;;;;;;;6.33;4.20;;;7.30;70.00;;;;;;5016579;28;20579;-65
2023/04/04 09:32:15;;;;;;;6.10;4.17;;;7.30;70.10;;;;;;5015331;28;20192;-65
2023/04/04 09:34:42;;;;;;;5.20;4.10;;;7.30;69.80;;;;;;5015254;28;20689;-65
2023/04/04 09:37:09;;;;;;;4.80;4.17;;;7.40;69.80;;;;;;5016986;28;20485;-66
2023/04/04 09:39:37;;;;;;;4.40;4.00;;;7.50;69.50;;;;;;5006431;28;20704;-65
2023/04/04 09:42:05;;;;;;;5.03;4.07;;;7.60;69.60;;;;;;5006399;28;22166;-66
2023/04/04 09:44:32;;;;;;;5.30;4.43;;;7.60;68.80;;;;;;5017705;28;20430;-66
2023/04/04 09:47:40;;;;;;;10.37;4.03;;;7.70;68.50;;;;;;5018374;28;21033;-66
2023/04/04 09:50:06;;;;;;;5.77;4.00;;;7.70;69.00;;;;;;4990059;28;20487;-65
2023/04/04 09:52:35;;;;;;;10.33;3.90;;;7.70;67.80;;;;;;5014344;28;20458;-65
2023/04/04 09:55:02;;;;;;;4.87;3.80;;;7.80;67.90;;;;;;5015402;28;20494;-65
2023/04/04 09:57:33;;;;;;;5.00;3.57;;;7.90;67.60;;;;;;5017306;28;20527;-65
2023/04/04 10:00:08;;;;;;;4.50;4.10;;;7.90;67.00;;;;;;5016139;28;20455;-65
2023/04/04 10:02:37;;;;;;;5.50;3.83;;;8.00;67.10;;;;;;5021172;28;20807;-65
2023/04/04 10:05:03;;;;;;;4.53;4.03;;;8.00;67.40;;;;;;5021205;28;20939;-65
2023/04/04 10:07:31;;;;;;;4.57;4.00;;;8.10;66.80;;;;;;5018900;28;20446;-65
2023/04/04 10:09:59;;;;;;;4.43;3.90;;;8.10;66.90;;;;;;5018377;28;20490;-65
2023/04/04 10:12:25;;;;;;;4.03;3.33;;;8.10;67.00;;;;;;5016633;28;21147;-65
2023/04/04 10:14:57;;;;;;;5.10;4.20;;;8.20;66.90;;;;;;5023388;28;20471;-65
2023/04/04 10:17:28;;;;;;;5.37;3.50;;;8.20;66.60;;;;;;5020609;28;20238;-65
2023/04/04 10:19:54;;;;;;;6.40;3.87;;;8.20;66.40;;;;;;5016451;28;20498;-65
2023/04/04 10:22:21;;;;;;;4.47;4.07;;;8.30;66.50;;;;;;5014090;28;20453;-65
2023/04/04 10:24:46;;;;;;;5.10;3.90;;;8.30;66.50;;;;;;5015633;28;20479;-65
2023/04/04 10:27:12;;;;;;;4.93;3.90;;;8.40;66.50;;;;;;5016728;28;20470;-65
2023/04/04 10:29:37;;;;;;;7.90;4.20;;;8.50;66.50;;;;;;5015875;28;20200;-65
2023/04/04 10:32:05;;;;;;;6.67;4.00;;;8.50;66.00;;;;;;5020090;28;20679;-65
2023/04/04 10:35:10;;;;;;;6.10;4.33;;;8.50;66.10;;;;;;5013510;28;20189;-65
2023/04/04 10:37:53;;;;;;;5.13;3.90;;;8.60;64.80;;;;;;5018978;28;20466;-65
2023/04/04 10:40:23;;;;;;;7.37;4.10;;;8.70;65.00;;;;;;5018313;28;20474;-65
2023/04/04 10:42:49;;;;;;;7.20;4.67;;;8.70;65.10;;;;;;5020770;28;20427;-65
2023/04/04 10:45:16;;;;;;;5.63;4.27;;;8.70;64.30;;;;;;5015631;28;20963;-65
2023/04/04 10:47:43;;;;;;;4.80;4.23;;;8.80;64.30;;;;;;5018757;28;20414;-65
2023/04/04 10:50:10;;;;;;;5.37;4.37;;;8.90;63.80;;;;;;5017233;28;20463;-65
2023/04/04 10:52:43;;;;;;;5.47;3.97;;;8.90;63.90;;;;;;5014306;28;20800;-65
2023/04/04 10:55:11;;;;;;;5.37;4.23;;;9.00;63.80;;;;;;5015079;28;20436;-65
2023/04/04 10:57:43;;;;;;;8.67;4.50;;;9.10;62.40;;;;;;5016227;28;20443;-65
2023/04/04 11:00:16;;;;;;;4.63;4.23;;;9.10;62.70;;;;;;5018861;28;20454;-65
2023/04/04 11:02:50;;;;;;;4.20;3.80;;;9.10;62.20;;;;;;5014944;28;20483;-65
2023/04/04 11:05:23;;;;;;;5.60;4.17;;;9.10;62.50;;;;;;5017251;28;20439;-64
2023/04/04 11:08:09;;;;;;;4.83;4.33;;;9.20;62.50;;;;;;5015318;28;20456;-64
2023/04/04 11:10:35;;;;;;;5.87;4.30;;;9.10;62.30;;;;;;5015614;28;20486;-65
2023/04/04 11:13:08;;;;;;;4.77;3.70;;;9.10;62.30;;;;;;5021026;28;20484;-66
2023/04/04 11:15:59;;;;;;;4.53;3.83;;;9.20;62.00;;;;;;5014731;28;20189;-65
2023/04/04 11:18:31;;;;;;;5.70;5.17;;;9.30;62.60;;;;;;5015594;28;20510;-66
2023/04/04 11:21:00;;;;;;;6.70;4.30;;;9.40;61.60;;;;;;5020789;28;20436;-65
2023/04/04 11:23:26;;;;;;;5.53;4.93;;;9.40;61.20;;;;;;5017934;28;20445;-66
2023/04/04 11:25:52;;;;;;;5.97;4.03;;;9.40;61.80;;;;;;5019600;28;20956;-66
2023/04/04 11:28:33;;;;;;;4.80;3.90;;;9.60;61.60;;;;;;5012224;28;20785;-66
2023/04/04 11:31:31;;;;;;;5.30;4.70;;;9.70;61.50;;;;;;5018843;28;20494;-65
2023/04/04 11:34:14;;;;;;;4.40;3.70;;;9.70;60.80;;;;;;5026419;28;20494;-66
2023/04/04 11:36:41;;;;;;;7.70;4.70;;;9.80;59.70;;;;;;5015854;28;20430;-66
2023/04/04 11:39:09;;;;;;;8.33;5.30;;;9.80;59.60;;;;;;5016018;28;20960;-66
2023/04/04 11:41:59;;;;;;;6.30;4.87;;;9.80;60.30;;;;;;5018525;28;20824;-66
2023/04/04 11:44:29;;;;;;;4.60;4.13;;;10.00;59.20;;;;;;5017873;28;20407;-66
2023/04/04 11:47:10;;;;;;;6.10;4.70;;;10.10;58.70;;;;;;5017933;28;20423;-66
2023/04/04 11:49:38;;;;;;;6.83;3.90;;;10.20;58.90;;;;;;5015788;28;20443;-66
2023/04/04 11:52:05;;;;;;;5.17;4.50;;;10.40;58.80;;;;;;5014638;28;20454;-66
2023/04/04 11:54:31;;;;;;;4.97;3.67;;;10.60;58.80;;;;;;5018663;28;20416;-66
2023/04/04 11:56:57;;;;;;;7.73;4.70;;;10.80;58.90;;;;;;5014347;28;20589;-66
2023/04/04 11:59:23;;;;;;;4.43;3.83;;;11.10;58.00;;;;;;5015601;28;20216;-66
2023/04/04 12:01:50;;;;;;;5.10;4.20;;;11.40;57.10;;;;;;5013540;28;20213;-66
2023/04/04 12:04:19;;;;;;;5.23;4.03;;;11.70;56.30;;;;;;5014275;28;20538;-66
2023/04/04 12:06:52;;;;;;;4.43;4.00;;;12.30;56.50;;;;;;5017462;28;20417;-66
2023/04/04 12:09:19;;;;;;;6.70;5.13;;;13.80;57.90;;;;;;5015297;28;20533;-66
2023/04/04 12:11:45;;;;;;;5.43;4.47;;;15.20;54.50;;;;;;5013627;28;22821;-66
2023/04/04 12:14:16;;;;;;;4.43;4.00;;;16.50;54.40;;;;;;5016988;28;20541;-66
2023/04/04 12:16:42;;;;;;;5.90;4.67;;;17.60;52.10;;;;;;5015356;28;20427;-66
2023/04/04 12:19:08;;;;;;;8.37;5.20;;;18.60;50.70;;;;;;5015714;28;20485;-66
2023/04/04 12:21:34;;;;;;;5.93;4.60;;;19.40;49.80;;;;;;5016258;28;20451;-66
2023/04/04 12:23:59;;;;;;;5.90;4.40;;;20.30;47.60;;;;;;5016507;28;20189;-66
2023/04/04 12:26:28;;;;;;;5.50;4.70;;;21.00;45.70;;;;;;5015555;28;20185;-67
2023/04/04 12:28:56;;;;;;;4.40;4.00;;;21.40;43.80;;;;;;5018136;28;20187;-67
2023/04/04 12:31:26;;;;;;;5.70;5.07;;;21.70;43.20;;;;;;5013191;28;20443;-66
2023/04/04 12:33:52;;;;;;;5.27;4.10;;;21.80;41.30;;;;;;5012025;28;20435;-66
2023/04/04 12:36:18;;;;;;;5.23;4.60;;;22.20;40.50;;;;;;5018110;28;20435;-66
2023/04/04 12:39:07;;;;;;;6.17;4.27;;;22.50;40.30;;;;;;5013594;28;20471;-64
2023/04/04 12:41:34;;;;;;;6.70;4.30;;;22.80;39.20;;;;;;5018068;28;20250;-65
2023/04/04 12:44:03;;;;;;;5.80;3.90;;;23.20;37.60;;;;;;5020301;28;20418;-67
2023/04/04 12:46:39;;;;;;;4.30;3.90;;;23.30;36.40;;;;;;5014161;28;20436;-67
2023/04/04 12:49:07;;;;;;;4.63;4.10;;;23.60;36.80;;;;;;5015894;28;20434;-67
2023/04/04 12:51:35;;;;;;;5.03;4.53;;;23.90;35.90;;;;;;5018465;28;20828;-64
2023/04/04 12:54:00;;;;;;;5.23;4.73;;;24.00;35.80;;;;;;5015473;28;21012;-67
2023/04/04 12:56:27;;;;;;;8.00;4.03;;;24.30;35.30;;;;;;5016603;28;20431;-67
2023/04/04 12:59:02;;;;;;;4.10;3.70;;;24.40;34.70;;;;;;5010523;28;20476;-67
2023/04/04 13:01:29;;;;;;;5.83;4.40;;;24.30;33.20;;;;;;5012570;28;20455;-66